createdAt,value
2018-09-26T00:00:24.696Z,66.20
2018-09-26T00:03:56.071Z,65.60
2018-09-26T00:06:24.429Z,65.65
2018-09-26T00:08:52.781Z,66.13
2018-09-26T00:11:21.135Z,65.82
2018-09-26T00:13:49.465Z,66.90
2018-09-26T00:16:17.855Z,67.58
2018-09-26T00:18:46.250Z,66.66
2018-09-26T00:21:14.705Z,67.20
2018-09-26T00:23:43.023Z,65.91
2018-09-26T00:26:11.355Z,67.02
2018-09-26T00:28:40.100Z,67.30
2018-09-26T00:31:08.464Z,67.21
2018-09-26T00:33:36.841Z,66.85
2018-09-26T00:36:05.397Z,67.62
2018-09-26T00:38:33.594Z,68.00
2018-09-26T00:41:01.942Z,66.79
2018-09-26T00:43:30.257Z,67.17
2018-09-26T00:45:58.604Z,66.75
2018-09-26T00:48:26.934Z,67.34
2018-09-26T00:50:55.252Z,67.50
2018-09-26T00:53:23.571Z,66.62
2018-09-26T00:55:51.913Z,66.35
2018-09-26T00:58:20.258Z,66.99
2018-09-26T01:00:48.591Z,67.52
2018-09-26T01:03:16.943Z,66.70
2018-09-26T01:05:45.257Z,66.83
2018-09-26T01:08:13.605Z,66.92
2018-09-26T01:10:41.932Z,66.82
2018-09-26T01:13:10.251Z,66.69
2018-09-26T01:15:38.558Z,68.11
2018-09-26T01:18:07.172Z,67.51
2018-09-26T01:20:35.596Z,66.68
2018-09-26T01:23:03.950Z,66.88
2018-09-26T01:25:32.280Z,66.82
2018-09-26T01:28:00.608Z,68.70
2018-09-26T01:30:28.938Z,67.97
2018-09-26T01:32:57.259Z,66.93
2018-09-26T01:35:25.575Z,67.50
2018-09-26T01:37:53.898Z,67.65
2018-09-26T01:40:22.222Z,67.74
2018-09-26T01:42:50.573Z,67.22
2018-09-26T01:45:18.905Z,67.07
2018-09-26T01:47:47.252Z,67.37
2018-09-26T01:50:15.580Z,68.03
2018-09-26T01:52:43.909Z,67.33
2018-09-26T01:55:12.249Z,67.08
2018-09-26T01:57:40.608Z,68.05
2018-09-26T02:00:09.024Z,68.06
2018-09-26T02:02:37.373Z,68.58
2018-09-26T02:05:05.710Z,67.96
2018-09-26T02:07:34.040Z,67.94
2018-09-26T02:10:02.401Z,68.83
2018-09-26T02:12:30.745Z,67.44
2018-09-26T02:14:59.077Z,68.29
2018-09-26T02:17:27.405Z,68.25
2018-09-26T02:19:55.732Z,68.66
2018-09-26T02:22:24.060Z,68.37
2018-09-26T02:24:52.401Z,67.93
2018-09-26T02:27:20.740Z,69.76
2018-09-26T02:29:49.115Z,67.91
2018-09-26T02:32:17.446Z,68.51
2018-09-26T02:34:45.770Z,68.50
2018-09-26T02:37:14.097Z,68.81
2018-09-26T02:39:42.451Z,69.68
2018-09-26T02:42:10.789Z,68.91
2018-09-26T02:44:39.116Z,68.23
2018-09-26T02:47:07.447Z,68.39
2018-09-26T02:49:36.604Z,68.13
2018-09-26T02:52:04.942Z,68.85
2018-09-26T02:54:33.250Z,69.30
2018-09-26T02:57:01.608Z,69.03
2018-09-26T02:59:29.923Z,68.39
2018-09-26T03:01:58.374Z,68.32
2018-09-26T03:04:26.716Z,69.77
2018-09-26T03:06:55.073Z,69.43
2018-09-26T03:09:23.410Z,69.43
2018-09-26T03:11:51.736Z,69.99
2018-09-26T03:14:20.072Z,70.16
2018-09-26T03:16:48.401Z,69.66
2018-09-26T03:19:16.719Z,70.76
2018-09-26T03:21:45.063Z,70.18
2018-09-26T03:24:13.404Z,70.67
2018-09-26T03:26:41.754Z,69.65
2018-09-26T03:29:10.128Z,71.52
2018-09-26T03:31:38.452Z,69.74
2018-09-26T03:34:07.092Z,71.08
2018-09-26T03:36:35.403Z,69.91
2018-09-26T03:39:05.024Z,70.59
2018-09-26T03:41:33.356Z,70.84
2018-09-26T03:44:01.694Z,69.93
2018-09-26T03:46:30.047Z,70.97
2018-09-26T03:48:58.372Z,71.25
2018-09-26T03:51:26.724Z,70.53
2018-09-26T03:53:55.084Z,71.34
2018-09-26T03:56:23.409Z,69.86
2018-09-26T03:58:51.763Z,70.33
2018-09-26T04:01:20.116Z,69.91
2018-09-26T04:03:48.447Z,70.64
2018-09-26T04:06:16.786Z,71.34
2018-09-26T04:08:45.137Z,69.93
2018-09-26T04:11:13.455Z,70.24
2018-09-26T04:13:41.796Z,70.69
2018-09-26T04:16:10.150Z,70.67
2018-09-26T04:18:38.476Z,69.67
2018-09-26T04:21:06.947Z,69.91
2018-09-26T04:23:35.277Z,69.91
2018-09-26T04:26:03.716Z,70.62
2018-09-26T04:28:32.035Z,70.71
2018-09-26T04:31:00.356Z,70.48
2018-09-26T04:33:29.314Z,70.86
2018-09-26T04:35:57.611Z,70.55
2018-09-26T04:38:25.967Z,70.65
2018-09-26T04:40:54.287Z,70.93
2018-09-26T04:43:22.611Z,71.98
2018-09-26T04:45:50.966Z,70.84
2018-09-26T04:48:19.305Z,71.02
2018-09-26T04:50:47.705Z,70.81
2018-09-26T04:53:16.015Z,70.78
2018-09-26T04:55:44.378Z,71.07
2018-09-26T04:58:12.766Z,71.36
2018-09-26T05:00:41.086Z,70.55
2018-09-26T05:03:09.429Z,72.08
2018-09-26T05:05:37.779Z,71.36
2018-09-26T05:08:06.391Z,70.47
2018-09-26T05:10:34.744Z,70.72
2018-09-26T05:13:03.699Z,71.72
2018-09-26T05:15:32.055Z,71.28
2018-09-26T05:18:00.400Z,72.45
2018-09-26T05:20:28.810Z,71.06
2018-09-26T05:22:57.141Z,70.70
2018-09-26T05:25:25.474Z,70.54
2018-09-26T05:27:53.808Z,71.73
2018-09-26T05:30:22.191Z,70.58
2018-09-26T05:32:50.553Z,70.95
2018-09-26T05:35:18.874Z,71.31
2018-09-26T05:37:47.224Z,71.41
2018-09-26T05:40:16.039Z,71.02
2018-09-26T05:42:44.455Z,70.79
2018-09-26T05:45:12.777Z,70.55
2018-09-26T05:47:41.141Z,69.62
2018-09-26T05:50:09.483Z,70.22
2018-09-26T05:52:37.815Z,70.66
2018-09-26T05:55:06.151Z,69.90
2018-09-26T05:57:34.484Z,70.32
2018-09-26T06:00:02.833Z,70.28
2018-09-26T06:02:31.140Z,69.92
2018-09-26T06:04:59.488Z,69.95
2018-09-26T06:07:27.900Z,70.09
2018-09-26T06:09:56.250Z,69.68
2018-09-26T06:12:24.555Z,69.31
2018-09-26T06:14:52.903Z,70.06
2018-09-26T06:17:21.233Z,69.24
2018-09-26T06:19:49.594Z,69.05
2018-09-26T06:22:17.926Z,69.35
2018-09-26T06:24:46.344Z,69.55
2018-09-26T06:27:14.595Z,69.03
2018-09-26T06:29:42.931Z,69.29
2018-09-26T06:32:11.278Z,68.69
2018-09-26T06:34:39.612Z,68.25
2018-09-26T06:37:07.952Z,68.92
2018-09-26T06:39:36.276Z,68.33
2018-09-26T06:42:04.665Z,68.47
2018-09-26T06:44:33.007Z,68.19
2018-09-26T06:47:01.308Z,67.96
2018-09-26T06:49:29.685Z,67.61
2018-09-26T06:51:58.011Z,67.54
2018-09-26T06:54:26.344Z,66.94
2018-09-26T06:56:54.774Z,67.14
2018-09-26T06:59:23.082Z,66.92
2018-09-26T07:01:51.606Z,66.70
2018-09-26T07:04:19.929Z,66.69
2018-09-26T07:06:48.254Z,66.32
2018-09-26T07:09:16.596Z,66.37
2018-09-26T07:11:44.943Z,66.01
2018-09-26T07:14:13.266Z,65.60
2018-09-26T07:16:41.632Z,65.87
2018-09-26T07:19:09.972Z,64.77
2018-09-26T07:21:38.325Z,65.43
2018-09-26T07:24:06.888Z,64.40
2018-09-26T07:26:35.217Z,63.80
2018-09-26T07:29:03.565Z,63.86
2018-09-26T07:31:32.215Z,63.83
2018-09-26T07:34:00.466Z,62.74
2018-09-26T07:36:28.808Z,63.40
2018-09-26T07:38:57.151Z,63.19
2018-09-26T07:41:25.493Z,63.00
2018-09-26T07:43:53.819Z,62.69
2018-09-26T07:46:22.142Z,59.65
2018-09-26T07:48:50.496Z,61.36
2018-09-26T07:51:19.389Z,61.89
2018-09-26T07:53:47.771Z,61.44
2018-09-26T07:56:16.097Z,60.60
2018-09-26T07:58:44.421Z,58.13
2018-09-26T08:01:12.772Z,60.04
2018-09-26T08:03:41.133Z,58.92
2018-09-26T08:06:09.834Z,59.45
2018-09-26T08:08:38.621Z,58.18
2018-09-26T08:11:06.974Z,55.96
2018-09-26T08:13:35.312Z,58.16
2018-09-26T08:16:03.658Z,57.74
2018-09-26T08:18:32.087Z,56.20
2018-09-26T08:21:00.407Z,56.45
2018-09-26T08:23:28.756Z,55.46
2018-09-26T08:25:57.089Z,55.78
2018-09-26T08:28:25.422Z,55.12
2018-09-26T08:37:53.833Z,55.85
2018-09-26T08:40:22.530Z,53.09
2018-09-26T08:42:50.883Z,51.71
2018-09-26T08:45:19.226Z,52.73
2018-09-26T08:47:47.589Z,50.24
2018-09-26T08:50:15.930Z,53.23
2018-09-26T08:52:44.424Z,50.79
2018-09-26T08:55:12.786Z,50.31
2018-09-26T08:57:41.118Z,49.18
2018-09-26T09:00:09.516Z,49.36
2018-09-26T09:02:37.867Z,48.27
2018-09-26T09:05:06.305Z,48.80
2018-09-26T09:07:34.683Z,48.90
2018-09-26T09:10:03.148Z,48.01
2018-09-26T09:12:31.459Z,48.28
2018-09-26T09:14:59.801Z,47.79
2018-09-26T09:17:28.412Z,47.14
2018-09-26T09:19:56.724Z,48.72
2018-09-26T09:22:25.060Z,48.42
2018-09-26T09:24:53.370Z,47.76
2018-09-26T09:27:21.749Z,47.66
2018-09-26T09:29:50.084Z,48.58
2018-09-26T09:32:18.500Z,48.36
2018-09-26T09:34:46.840Z,47.25
2018-09-26T09:37:15.427Z,47.76
2018-09-26T09:39:43.806Z,48.22
2018-09-26T09:42:12.240Z,48.38
2018-09-26T09:44:40.593Z,47.21
2018-09-26T09:47:08.954Z,46.04
2018-09-26T09:49:37.627Z,47.42
2018-09-26T09:52:06.004Z,45.90
2018-09-26T09:54:34.398Z,42.90
2018-09-26T09:57:03.157Z,45.59
2018-09-26T09:59:31.602Z,46.23
2018-09-26T10:02:00.047Z,42.47
2018-09-26T10:04:28.494Z,42.92
2018-09-26T10:06:56.829Z,44.15
2018-09-26T10:09:25.187Z,43.98
2018-09-26T10:11:53.654Z,42.04
2018-09-26T10:14:22.147Z,43.11
2018-09-26T10:16:50.993Z,41.76
2018-09-26T10:19:19.349Z,42.64
2018-09-26T10:21:47.917Z,40.00
2018-09-26T10:24:17.728Z,39.82
2018-09-26T10:26:46.097Z,39.89
2018-09-26T10:29:14.472Z,37.03
2018-09-26T10:31:43.328Z,36.54
2018-09-26T10:34:11.729Z,34.45
2018-09-26T10:36:40.165Z,34.29
2018-09-26T10:39:09.719Z,34.42
2018-09-26T10:41:38.112Z,35.04
2018-09-26T10:44:06.950Z,32.99
2018-09-26T10:46:35.863Z,33.56
2018-09-26T10:49:04.229Z,32.69
2018-09-26T10:51:32.613Z,33.96
2018-09-26T10:54:00.944Z,33.48
2018-09-26T10:56:29.353Z,33.16
2018-09-26T10:58:57.695Z,33.95
2018-09-26T11:01:26.069Z,33.83
2018-09-26T11:03:54.460Z,33.12
2018-09-26T11:06:22.872Z,33.75
2018-09-26T11:08:51.224Z,34.48
2018-09-26T11:11:19.649Z,34.38
2018-09-26T11:13:48.012Z,35.03
2018-09-26T11:16:16.544Z,34.10
2018-09-26T11:18:45.011Z,35.02
2018-09-26T11:21:13.415Z,34.74
2018-09-26T11:23:41.764Z,35.01
2018-09-26T11:26:10.168Z,35.63
2018-09-26T11:28:38.526Z,35.28
2018-09-26T11:31:07.112Z,35.43
2018-09-26T11:33:35.534Z,34.83
2018-09-26T11:36:03.909Z,34.88
2018-09-26T11:38:32.251Z,35.37
2018-09-26T11:41:00.694Z,35.20
2018-09-26T11:43:29.045Z,35.51
2018-09-26T11:45:57.452Z,36.04
2018-09-26T11:48:25.821Z,36.78
2018-09-26T11:50:54.188Z,36.30
2018-09-26T11:53:22.616Z,36.18
2018-09-26T11:55:50.976Z,36.30
2018-09-26T11:58:19.369Z,36.09
2018-09-26T12:00:47.724Z,36.16
2018-09-26T12:03:16.254Z,36.44
2018-09-26T12:05:44.748Z,36.44
2018-09-26T12:08:13.085Z,37.09
2018-09-26T12:10:41.475Z,36.86
2018-09-26T12:13:10.035Z,36.84
2018-09-26T12:15:38.375Z,36.81
2018-09-26T12:18:06.799Z,37.30
2018-09-26T12:20:35.175Z,36.85
2018-09-26T12:23:03.617Z,37.33
2018-09-26T12:25:31.972Z,37.17
2018-09-26T12:28:00.762Z,37.58
2018-09-26T12:30:29.201Z,37.62
2018-09-26T12:32:58.612Z,37.76
2018-09-26T12:35:27.329Z,37.54
2018-09-26T12:37:55.904Z,38.02
2018-09-26T12:40:24.288Z,37.94
2018-09-26T12:42:52.978Z,37.78
2018-09-26T12:45:21.449Z,37.53
2018-09-26T12:47:50.419Z,37.46
2018-09-26T12:50:19.408Z,38.08
2018-09-26T12:52:47.915Z,37.77
2018-09-26T12:55:16.439Z,38.17
2018-09-26T12:57:44.959Z,38.21
2018-09-26T13:00:13.396Z,38.71
2018-09-26T13:02:43.945Z,38.68
2018-09-26T13:05:12.534Z,38.58
2018-09-26T13:07:41.198Z,38.61
2018-09-26T13:10:09.689Z,38.52
2018-09-26T13:12:38.171Z,38.73
2018-09-26T13:15:07.231Z,39.08
2018-09-26T13:17:37.768Z,38.47
2018-09-26T13:20:08.272Z,38.83
2018-09-26T13:22:38.660Z,38.87
2018-09-26T13:25:09.186Z,39.19
2018-09-26T13:27:40.133Z,38.73
2018-09-26T13:30:10.625Z,38.79
2018-09-26T13:32:40.600Z,39.40
2018-09-26T13:35:10.744Z,39.07
2018-09-26T13:37:41.223Z,39.09
2018-09-26T13:40:11.866Z,39.11
2018-09-26T13:42:42.098Z,39.46
2018-09-26T13:45:13.547Z,39.14
2018-09-26T13:47:43.661Z,39.42
2018-09-26T13:50:13.856Z,39.59
2018-09-26T13:52:43.802Z,39.93
2018-09-26T13:55:13.674Z,40.01
2018-09-26T13:57:43.845Z,39.89
2018-09-26T14:00:16.853Z,40.04
2018-09-26T14:02:48.285Z,39.98
2018-09-26T14:05:18.446Z,40.47
2018-09-26T14:07:49.312Z,40.03
2018-09-26T14:10:19.439Z,40.07
2018-09-26T14:12:49.634Z,40.33
2018-09-26T14:15:18.993Z,40.74
2018-09-26T14:17:49.155Z,41.03
2018-09-26T14:20:35.022Z,41.24
2018-09-26T14:23:06.447Z,40.54
2018-09-26T14:25:37.726Z,40.33
2018-09-26T14:28:08.353Z,40.59
2018-09-26T14:30:39.406Z,40.69
2018-09-26T14:33:09.478Z,41.00
2018-09-26T14:35:39.794Z,40.23
2018-09-26T14:38:10.316Z,40.49
2018-09-26T14:40:40.884Z,39.76
2018-09-26T14:43:11.137Z,39.80
2018-09-26T14:45:41.994Z,39.58
2018-09-26T14:48:12.418Z,39.58
2018-09-26T14:50:43.002Z,38.47
2018-09-26T14:53:13.463Z,39.00
2018-09-26T14:55:43.616Z,39.44
2018-09-26T14:58:14.601Z,38.74
2018-09-26T15:00:45.394Z,38.97
2018-09-26T15:03:16.124Z,39.05
2018-09-26T15:05:46.216Z,39.14
2018-09-26T15:08:17.373Z,39.10
2018-09-26T15:10:52.678Z,38.56
2018-09-26T15:13:23.628Z,38.47
2018-09-26T15:15:53.640Z,38.19
2018-09-26T15:18:24.480Z,38.47
2018-09-26T15:20:55.791Z,38.70
2018-09-26T15:23:26.553Z,38.46
2018-09-26T15:25:58.782Z,37.74
2018-09-26T15:28:29.300Z,37.86
2018-09-26T15:30:59.826Z,37.58
2018-09-26T15:33:31.661Z,38.33
2018-09-26T15:36:02.824Z,38.15
2018-09-26T15:38:33.651Z,38.45
2018-09-26T15:41:04.064Z,38.31
2018-09-26T15:43:34.553Z,38.10
2018-09-26T15:46:05.323Z,38.51
2018-09-26T15:48:36.317Z,38.86
2018-09-26T15:51:06.394Z,38.80
2018-09-26T15:53:36.991Z,38.56
2018-09-26T15:56:07.980Z,38.67
2018-09-26T15:58:38.754Z,39.13
2018-09-26T16:01:10.857Z,39.54
2018-09-26T16:03:41.262Z,39.27
2018-09-26T16:06:11.537Z,39.34
2018-09-26T16:08:42.224Z,39.19
2018-09-26T16:11:12.326Z,39.66
2018-09-26T16:13:43.139Z,39.49
2018-09-26T16:16:14.401Z,39.47
2018-09-26T16:18:44.891Z,39.88
2018-09-26T16:21:16.151Z,39.05
2018-09-26T16:23:46.017Z,39.65
2018-09-26T16:26:16.464Z,39.90
2018-09-26T16:28:46.295Z,39.38
2018-09-26T16:31:16.976Z,39.93
2018-09-26T16:33:47.644Z,39.79
2018-09-26T16:36:17.474Z,39.45
2018-09-26T16:38:47.417Z,39.81
2018-09-26T16:41:18.299Z,40.08
2018-09-26T16:43:48.688Z,39.69
2018-09-26T16:46:18.572Z,39.70
2018-09-26T16:48:51.706Z,39.74
2018-09-26T16:51:21.760Z,40.84
2018-09-26T16:53:52.493Z,40.30
2018-09-26T16:56:24.347Z,40.20
2018-09-26T16:58:55.548Z,40.50
2018-09-26T17:01:25.514Z,40.50
2018-09-26T17:03:56.745Z,40.50
2018-09-26T17:06:27.657Z,40.46
2018-09-26T17:08:59.130Z,40.11
2018-09-26T17:11:29.618Z,40.48
2018-09-26T17:13:59.782Z,40.50
2018-09-26T17:16:30.880Z,40.76
2018-09-26T17:19:02.079Z,40.76
2018-09-26T17:21:34.289Z,40.62
2018-09-26T17:24:05.213Z,41.19
2018-09-26T17:26:36.188Z,41.43
2018-09-26T17:29:06.172Z,41.35
2018-09-26T17:31:36.514Z,40.99
2018-09-26T17:34:08.398Z,41.74
2018-09-26T17:36:38.729Z,41.66
2018-09-26T17:39:10.124Z,41.34
2018-09-26T17:41:42.436Z,41.24
2018-09-26T17:44:14.183Z,41.35
2018-09-26T17:46:44.965Z,41.84
2018-09-26T17:49:16.171Z,41.63
2018-09-26T17:51:45.964Z,41.69
2018-09-26T17:54:16.337Z,42.33
2018-09-26T17:56:46.287Z,41.90
2018-09-26T17:59:18.156Z,42.68
2018-09-26T18:01:49.456Z,41.78
2018-09-26T18:04:20.238Z,42.30
2018-09-26T18:06:50.476Z,42.33
2018-09-26T18:09:21.349Z,41.94
2018-09-26T18:11:52.182Z,41.86
2018-09-26T18:14:24.247Z,42.19
2018-09-26T18:16:54.266Z,42.11
2018-09-26T18:19:24.787Z,42.39
2018-09-26T18:21:55.573Z,42.08
2018-09-26T18:24:27.673Z,42.27
2018-09-26T18:27:00.635Z,42.44
2018-09-26T18:29:30.868Z,42.80
2018-09-26T18:32:00.760Z,42.15
2018-09-26T18:34:30.606Z,42.61
2018-09-26T18:37:03.435Z,42.75
2018-09-26T18:39:52.629Z,42.11
2018-09-26T18:42:24.963Z,42.61
2018-09-26T18:44:55.407Z,42.59
2018-09-26T18:47:25.429Z,42.66
2018-09-26T18:49:58.868Z,42.48
2018-09-26T18:52:28.992Z,42.71
2018-09-26T18:54:59.196Z,42.77
2018-09-26T18:57:30.255Z,42.52
2018-09-26T19:00:01.676Z,42.56
2018-09-26T19:02:32.699Z,42.48
2018-09-26T19:05:02.637Z,42.56
2018-09-26T19:07:33.933Z,42.71
2018-09-26T19:10:04.690Z,42.60
2018-09-26T19:12:35.598Z,42.91
2018-09-26T19:15:06.427Z,42.77
2018-09-26T19:17:37.107Z,42.81
2018-09-26T19:20:07.063Z,42.73
2018-09-26T19:22:37.042Z,42.88
2018-09-26T19:25:07.117Z,43.05
2018-09-26T19:27:37.359Z,42.64
2018-09-26T19:30:08.360Z,42.65
2018-09-26T19:32:40.240Z,42.39
2018-09-26T19:35:10.407Z,43.18
2018-09-26T19:37:41.011Z,42.57
2018-09-26T19:40:12.213Z,42.48
2018-09-26T19:42:43.185Z,43.03
2018-09-26T19:45:13.215Z,43.01
2018-09-26T19:47:43.383Z,42.95
2018-09-26T19:50:13.883Z,43.05
2018-09-26T19:52:43.950Z,42.96
2018-09-26T19:55:13.458Z,42.80
2018-09-26T19:57:43.855Z,43.17
2018-09-26T20:00:14.470Z,42.95
2018-09-26T20:02:45.082Z,43.44
2018-09-26T20:05:14.954Z,43.23
2018-09-26T20:07:45.696Z,43.24
2018-09-26T20:10:16.656Z,43.46
2018-09-26T20:12:46.100Z,43.08
2018-09-26T20:15:16.186Z,43.05
2018-09-26T20:17:46.167Z,43.78
2018-09-26T20:20:16.076Z,43.31
2018-09-26T20:22:45.283Z,43.43
2018-09-26T20:25:15.330Z,43.53
2018-09-26T20:27:46.078Z,43.73
2018-09-26T20:30:19.422Z,43.73
2018-09-26T20:32:51.376Z,43.86
2018-09-26T20:35:20.890Z,44.37
2018-09-26T20:37:50.236Z,44.05
2018-09-26T20:40:20.626Z,44.15
2018-09-26T20:42:50.947Z,44.12
2018-09-26T20:45:22.399Z,44.29
2018-09-26T20:47:53.640Z,45.19
2018-09-26T20:50:23.147Z,44.38
2018-09-26T20:52:52.613Z,44.11
2018-09-26T20:55:22.990Z,44.55
2018-09-26T20:57:53.333Z,44.29
2018-09-26T21:00:25.982Z,44.68
2018-09-26T21:02:57.235Z,45.00
2018-09-26T21:05:32.151Z,45.14
2018-09-26T21:08:02.778Z,44.99
2018-09-26T21:10:32.974Z,44.86
2018-09-26T21:13:06.203Z,44.51
2018-09-26T21:15:36.423Z,45.30
2018-09-26T21:18:07.097Z,45.29
2018-09-26T21:20:37.342Z,45.31
2018-09-26T21:23:07.317Z,45.34
2018-09-26T21:25:37.863Z,45.12
2018-09-26T21:28:08.075Z,45.44
2018-09-26T21:30:37.644Z,45.07
2018-09-26T21:33:07.699Z,44.91
2018-09-26T21:35:38.598Z,45.60
2018-09-26T21:38:08.737Z,45.29
2018-09-26T21:40:39.341Z,45.62
2018-09-26T21:43:09.380Z,45.92
2018-09-26T21:45:42.300Z,45.87
2018-09-26T21:48:12.632Z,45.53
2018-09-26T21:50:43.968Z,45.67
2018-09-26T21:53:16.357Z,45.40
2018-09-26T21:55:46.596Z,45.55
2018-09-26T21:58:17.304Z,46.59
2018-09-26T22:00:53.297Z,46.13
2018-09-26T22:03:24.418Z,45.94
2018-09-26T22:05:54.631Z,45.69
2018-09-26T22:08:24.118Z,46.49
2018-09-26T22:11:07.211Z,46.05
2018-09-26T22:17:02.692Z,46.06
2018-09-26T22:19:33.176Z,45.93
2018-09-26T22:22:05.849Z,46.23
2018-09-26T22:24:37.073Z,46.52
2018-09-26T22:27:08.377Z,46.51
2018-09-26T22:29:38.370Z,46.54
2018-09-26T22:32:08.355Z,46.11
2018-09-26T22:34:38.059Z,46.29
2018-09-26T22:37:08.314Z,46.38
2018-09-26T22:39:39.595Z,46.52
2018-09-26T22:42:09.495Z,46.40
2018-09-26T22:44:40.535Z,46.22
2018-09-26T22:47:10.409Z,46.10
2018-09-26T22:49:40.427Z,46.06
2018-09-26T22:52:10.601Z,45.71
2018-09-26T22:54:40.398Z,46.31
2018-09-26T22:57:11.189Z,46.53
2018-09-26T22:59:40.983Z,47.04
2018-09-26T23:02:12.285Z,46.58
2018-09-26T23:04:43.676Z,46.82
2018-09-26T23:07:15.162Z,46.70
2018-09-26T23:09:45.200Z,47.12
2018-09-26T23:12:17.160Z,47.02
2018-09-26T23:14:48.744Z,47.76
2018-09-26T23:17:19.899Z,46.79
2018-09-26T23:19:50.528Z,47.51
2018-09-26T23:22:21.459Z,47.19
2018-09-26T23:24:52.611Z,47.49
2018-09-26T23:27:23.236Z,47.89
2018-09-26T23:29:54.255Z,47.49
2018-09-26T23:32:25.952Z,47.91
2018-09-26T23:34:56.284Z,47.83
2018-09-26T23:37:26.767Z,47.61
2018-09-26T23:39:58.632Z,47.89
2018-09-26T23:42:29.586Z,47.89
2018-09-26T23:45:00.255Z,48.54
2018-09-26T23:47:30.801Z,49.67
2018-09-26T23:50:00.985Z,48.52
2018-09-26T23:52:30.806Z,48.58
2018-09-26T23:55:01.119Z,48.66
2018-09-26T23:57:31.208Z,48.80
